createdAt,value
2022-11-13T00:00:57.164Z,90.19
2022-11-13T00:01:57.214Z,89.87
2022-11-13T00:02:58.250Z,89.92
2022-11-13T00:03:57.156Z,89.92
2022-11-13T00:04:57.120Z,90.39
2022-11-13T00:05:57.115Z,90.60
2022-11-13T00:06:59.419Z,90.29
2022-11-13T00:07:58.115Z,90.02
2022-11-13T00:08:57.104Z,89.46
2022-11-13T00:09:57.082Z,89.36
2022-11-13T00:10:57.074Z,89.56
2022-11-13T00:11:57.063Z,89.77
2022-11-13T00:12:57.057Z,89.87
2022-11-13T00:13:57.057Z,89.61
2022-11-13T00:14:57.035Z,90.12
2022-11-13T00:15:57.020Z,89.67
2022-11-13T00:16:57.044Z,89.15
2022-11-13T00:17:57.068Z,89.56
2022-11-13T00:18:57.004Z,89.04
2022-11-13T00:19:57.086Z,88.53
2022-11-13T00:20:56.964Z,88.84
2022-11-13T00:21:56.980Z,88.94
2022-11-13T00:22:56.947Z,88.94
2022-11-13T00:23:57.048Z,88.53
2022-11-13T00:24:56.932Z,88.42
2022-11-13T00:25:56.933Z,88.73
2022-11-13T00:26:56.956Z,87.90
2022-11-13T00:27:56.908Z,88.21
2022-11-13T00:28:56.897Z,87.90
2022-11-13T00:29:56.887Z,88.11
2022-11-13T00:30:56.865Z,88.01
2022-11-13T00:31:56.901Z,88.15
2022-11-13T00:32:56.850Z,88.01
2022-11-13T00:34:58.859Z,88.67
2022-11-13T00:35:56.885Z,88.46
2022-11-13T00:36:56.804Z,89.09
2022-11-13T00:37:56.800Z,88.98
2022-11-13T00:38:56.791Z,89.36
2022-11-13T00:39:59.638Z,88.88
2022-11-13T00:40:57.787Z,88.36
2022-11-13T00:41:56.763Z,88.88
2022-11-13T00:42:56.754Z,89.09
2022-11-13T00:43:56.740Z,88.88
2022-11-13T00:44:56.725Z,88.88
2022-11-13T00:45:56.737Z,88.88
2022-11-13T00:46:56.710Z,88.78
2022-11-13T00:47:56.703Z,89.03
2022-11-13T00:48:56.691Z,89.13
2022-11-13T00:49:56.754Z,89.19
2022-11-13T00:50:56.684Z,89.34
2022-11-13T00:51:56.680Z,89.61
2022-11-13T00:52:56.658Z,89.65
2022-11-13T00:53:56.676Z,89.96
2022-11-13T00:54:56.626Z,90.17
2022-11-13T00:55:56.743Z,90.27
2022-11-13T00:56:56.633Z,89.96
2022-11-13T00:57:56.609Z,91.10
2022-11-13T00:58:56.611Z,91.20
2022-11-13T00:59:56.607Z,90.89
2022-11-13T01:00:56.602Z,91.10
2022-11-13T01:01:56.618Z,91.00
2022-11-13T01:02:56.552Z,90.95
2022-11-13T01:03:56.602Z,90.75
2022-11-13T01:04:56.533Z,90.64
2022-11-13T01:05:56.623Z,90.69
2022-11-13T01:06:56.635Z,90.75
2022-11-13T01:07:56.514Z,90.54
2022-11-13T01:08:56.500Z,90.54
2022-11-13T01:09:56.489Z,90.64
2022-11-13T01:10:56.470Z,90.48
2022-11-13T01:11:56.513Z,90.85
2022-11-13T01:12:56.480Z,91.37
2022-11-13T01:13:56.454Z,91.27
2022-11-13T01:14:56.439Z,91.27
2022-11-13T01:15:56.426Z,91.37
2022-11-13T01:16:56.470Z,91.37
2022-11-13T01:17:56.486Z,91.06
2022-11-13T01:18:56.514Z,90.95
2022-11-13T01:19:56.400Z,91.16
2022-11-13T01:20:56.380Z,90.23
2022-11-13T01:21:56.442Z,90.54
2022-11-13T01:22:56.386Z,91.16
2022-11-13T01:23:57.365Z,90.79
2022-11-13T01:24:56.342Z,90.79
2022-11-13T01:25:56.332Z,91.10
2022-11-13T01:26:56.379Z,90.48
2022-11-13T01:27:56.357Z,90.48
2022-11-13T01:28:56.302Z,90.31
2022-11-13T01:29:56.306Z,91.00
2022-11-13T01:30:56.288Z,90.72
2022-11-13T01:31:56.292Z,91.20
2022-11-13T01:32:56.265Z,90.79
2022-11-13T01:33:56.280Z,91.31
2022-11-13T01:34:56.249Z,90.27
2022-11-13T01:35:56.246Z,90.41
2022-11-13T01:36:56.252Z,90.31
2022-11-13T01:37:56.301Z,90.83
2022-11-13T01:38:56.232Z,91.55
2022-11-13T01:39:56.200Z,91.41
2022-11-13T01:40:56.203Z,91.45
2022-11-13T01:41:56.232Z,90.83
2022-11-13T01:42:56.170Z,90.89
2022-11-13T01:43:56.173Z,90.41
2022-11-13T01:44:56.152Z,90.31
2022-11-13T01:45:56.185Z,91.14
2022-11-13T01:46:56.133Z,90.72
2022-11-13T01:47:56.144Z,90.97
2022-11-13T01:48:56.121Z,91.80
2022-11-13T01:49:56.110Z,90.87
2022-11-13T01:50:56.088Z,90.93
2022-11-13T01:51:56.075Z,91.60
2022-11-13T01:52:56.084Z,91.55
2022-11-13T01:53:56.141Z,91.55
2022-11-13T01:54:56.078Z,90.83
2022-11-13T01:55:56.050Z,91.03
2022-11-13T01:56:56.039Z,91.14
2022-11-13T01:57:56.058Z,90.83
2022-11-13T01:58:56.020Z,91.35
2022-11-13T01:59:56.009Z,91.28
2022-11-13T02:00:56.015Z,90.77
2022-11-13T02:01:56.071Z,91.24
2022-11-13T02:02:55.999Z,91.18
2022-11-13T02:03:55.977Z,91.08
2022-11-13T02:04:55.968Z,90.91
2022-11-13T02:05:55.961Z,91.53
2022-11-13T02:06:56.003Z,91.91
2022-11-13T02:07:55.928Z,92.16
2022-11-13T02:08:55.950Z,92.11
2022-11-13T02:09:55.920Z,92.22
2022-11-13T02:10:55.908Z,92.43
2022-11-13T02:11:55.914Z,91.70
2022-11-13T02:12:55.906Z,91.39
2022-11-13T02:13:55.878Z,91.70
2022-11-13T02:14:55.860Z,91.60
2022-11-13T02:15:55.859Z,91.39
2022-11-13T02:16:55.837Z,90.97
2022-11-13T02:17:55.862Z,91.39
2022-11-13T02:18:55.821Z,90.87
2022-11-13T02:19:55.806Z,90.87
2022-11-13T02:20:55.800Z,90.87
2022-11-13T02:21:55.788Z,90.87
2022-11-13T02:22:55.787Z,91.28
2022-11-13T02:23:55.796Z,91.18
2022-11-13T02:24:55.761Z,91.39
2022-11-13T02:25:55.834Z,91.08
2022-11-13T02:26:55.752Z,91.60
2022-11-13T02:27:55.760Z,91.39
2022-11-13T02:28:55.785Z,91.39
2022-11-13T02:29:55.769Z,91.70
2022-11-13T02:30:55.733Z,90.87
2022-11-13T02:31:55.701Z,90.77
2022-11-13T02:32:55.703Z,91.28
2022-11-13T02:33:55.670Z,91.28
2022-11-13T02:34:55.674Z,91.18
2022-11-13T02:35:55.647Z,91.28
2022-11-13T02:36:55.636Z,90.87
2022-11-13T02:37:55.626Z,91.60
2022-11-13T02:38:55.704Z,91.39
2022-11-13T02:39:55.623Z,90.97
2022-11-13T02:40:55.681Z,91.49
2022-11-13T02:41:55.662Z,90.87
2022-11-13T02:42:55.585Z,91.60
2022-11-13T02:43:55.579Z,91.39
2022-11-13T02:44:55.615Z,90.87
2022-11-13T02:45:55.577Z,91.60
2022-11-13T02:46:55.627Z,91.60
2022-11-13T02:47:55.542Z,91.39
2022-11-13T02:49:27.434Z,91.49
2022-11-13T02:49:55.533Z,91.49
2022-11-13T02:50:55.543Z,91.39
2022-11-13T02:51:55.506Z,91.91
2022-11-13T02:52:55.549Z,91.49
2022-11-13T02:53:55.482Z,91.80
2022-11-13T02:54:55.487Z,91.49
2022-11-13T02:55:55.470Z,91.49
2022-11-13T02:56:55.482Z,91.39
2022-11-13T02:57:55.533Z,91.80
2022-11-13T02:58:55.451Z,91.60
2022-11-13T02:59:55.493Z,91.80
2022-11-13T03:00:55.409Z,91.70
2022-11-13T03:01:55.499Z,91.60
2022-11-13T03:02:55.388Z,91.91
2022-11-13T03:03:57.714Z,91.60
2022-11-13T03:05:13.332Z,91.45
2022-11-13T03:05:57.415Z,91.60
2022-11-13T03:06:55.488Z,92.11
2022-11-13T03:07:55.384Z,91.91
2022-11-13T03:08:55.333Z,91.45
2022-11-13T03:09:55.334Z,91.14
2022-11-13T03:10:55.311Z,91.24
2022-11-13T03:11:55.304Z,90.31
2022-11-13T03:12:55.329Z,91.03
2022-11-13T03:13:55.357Z,90.77
2022-11-13T03:14:55.306Z,91.08
2022-11-13T03:15:55.301Z,90.87
2022-11-13T03:16:55.297Z,91.49
2022-11-13T03:17:55.258Z,91.60
2022-11-13T03:18:55.261Z,91.60
2022-11-13T03:19:55.260Z,92.22
2022-11-13T03:20:55.219Z,92.63
2022-11-13T03:21:55.204Z,92.84
2022-11-13T03:22:55.189Z,92.80
2022-11-13T03:23:55.211Z,92.49
2022-11-13T03:24:55.201Z,92.49
2022-11-13T03:25:55.163Z,92.38
2022-11-13T03:26:55.173Z,91.72
2022-11-13T03:27:55.133Z,92.03
2022-11-13T03:28:55.165Z,91.41
2022-11-13T03:29:55.246Z,91.72
2022-11-13T03:30:55.121Z,90.58
2022-11-13T03:31:55.098Z,90.89
2022-11-13T03:32:55.092Z,90.06
2022-11-13T03:33:55.091Z,89.65
2022-11-13T03:34:55.077Z,90.27
2022-11-13T03:35:55.084Z,89.75
2022-11-13T03:36:55.108Z,89.89
2022-11-13T03:37:55.162Z,89.79
2022-11-13T03:38:55.039Z,90.04
2022-11-13T03:39:55.134Z,90.66
2022-11-13T03:40:55.019Z,90.97
2022-11-13T03:41:55.020Z,90.81
2022-11-13T03:42:55.030Z,91.43
2022-11-13T03:43:54.993Z,92.26
2022-11-13T03:44:54.992Z,92.16
2022-11-13T03:45:55.098Z,92.78
2022-11-13T03:46:54.961Z,92.26
2022-11-13T03:47:54.942Z,92.47
2022-11-13T03:48:54.941Z,92.68
2022-11-13T03:49:54.952Z,92.16
2022-11-13T03:50:54.915Z,92.16
2022-11-13T03:51:54.919Z,92.47
2022-11-13T03:52:54.893Z,92.57
2022-11-13T03:53:54.893Z,92.16
2022-11-13T03:54:54.877Z,92.47
2022-11-13T03:55:54.882Z,92.88
2022-11-13T03:56:54.891Z,92.84
2022-11-13T03:57:54.845Z,92.74
2022-11-13T03:58:54.851Z,91.91
2022-11-13T03:59:54.828Z,91.70
2022-11-13T04:00:54.840Z,91.35
2022-11-13T04:01:54.992Z,90.56
2022-11-13T04:02:54.793Z,90.25
2022-11-13T04:03:54.856Z,90.77
2022-11-13T04:04:54.793Z,91.08
2022-11-13T04:05:54.767Z,91.12
2022-11-13T04:06:54.824Z,90.56
2022-11-13T04:07:54.776Z,91.28
2022-11-13T04:08:54.766Z,90.97
2022-11-13T04:09:54.769Z,91.64
2022-11-13T04:10:54.726Z,91.53
2022-11-13T04:11:54.734Z,91.91
2022-11-13T04:12:54.705Z,91.85
2022-11-13T04:13:54.723Z,90.81
2022-11-13T04:14:54.682Z,90.81
2022-11-13T04:15:54.703Z,91.02
2022-11-13T04:16:54.673Z,91.64
2022-11-13T04:17:54.735Z,91.43
2022-11-13T04:18:54.647Z,91.74
2022-11-13T04:19:54.630Z,91.74
2022-11-13T04:20:54.669Z,91.95
2022-11-13T04:21:54.668Z,91.85
2022-11-13T04:22:54.625Z,91.43
2022-11-13T04:23:54.660Z,91.64
2022-11-13T04:24:54.610Z,91.74
2022-11-13T04:25:54.601Z,91.64
2022-11-13T04:26:54.628Z,91.74
2022-11-13T04:27:54.559Z,91.33
2022-11-13T04:28:54.565Z,91.37
2022-11-13T04:29:54.595Z,90.50
2022-11-13T04:30:54.512Z,90.85
2022-11-13T04:31:54.564Z,90.44
2022-11-13T04:32:54.515Z,90.85
2022-11-13T04:33:54.578Z,91.47
2022-11-13T04:34:54.498Z,91.78
2022-11-13T04:35:54.507Z,91.68
2022-11-13T04:36:54.494Z,91.99
2022-11-13T04:37:54.592Z,91.99
2022-11-13T04:38:54.463Z,92.10
2022-11-13T04:39:54.440Z,92.10
2022-11-13T04:40:54.490Z,91.78
2022-11-13T04:41:55.666Z,92.20
2022-11-13T04:42:55.415Z,92.10
2022-11-13T04:43:54.466Z,91.58
2022-11-13T04:44:54.430Z,91.78
2022-11-13T04:45:54.397Z,92.03
2022-11-13T04:46:54.387Z,91.72
2022-11-13T04:47:54.394Z,92.24
2022-11-13T04:48:54.381Z,92.14
2022-11-13T04:49:54.423Z,92.45
2022-11-13T04:50:54.334Z,92.91
2022-11-13T04:51:54.333Z,92.86
2022-11-13T04:52:54.339Z,93.07
2022-11-13T04:53:54.350Z,93.18
2022-11-13T04:54:54.320Z,92.86
2022-11-13T04:55:54.293Z,92.45
2022-11-13T04:56:54.286Z,92.55
2022-11-13T04:57:54.276Z,92.55
2022-11-13T04:58:54.277Z,92.86
2022-11-13T04:59:54.247Z,92.66
2022-11-13T05:00:54.239Z,92.55
2022-11-13T05:01:54.273Z,92.86
2022-11-13T05:02:54.225Z,92.86
2022-11-13T05:03:54.263Z,92.55
2022-11-13T05:04:54.198Z,92.45
2022-11-13T05:05:54.255Z,92.55
2022-11-13T05:06:54.222Z,92.70
2022-11-13T05:07:54.200Z,93.07
2022-11-13T05:08:54.239Z,92.86
2022-11-13T05:09:54.148Z,92.35
2022-11-13T05:10:55.138Z,92.24
2022-11-13T05:11:54.129Z,91.93
2022-11-13T05:12:54.111Z,92.24
2022-11-13T05:13:54.103Z,92.03
2022-11-13T05:14:54.121Z,92.24
2022-11-13T05:15:54.082Z,92.45
2022-11-13T05:16:54.116Z,92.24
2022-11-13T05:17:54.073Z,92.24
2022-11-13T05:18:54.108Z,91.99
2022-11-13T05:19:54.065Z,91.72
2022-11-13T05:20:54.121Z,92.45
2022-11-13T05:21:54.132Z,92.24
2022-11-13T05:22:54.022Z,92.24
2022-11-13T05:23:54.009Z,92.03
2022-11-13T05:24:54.052Z,92.35
2022-11-13T05:25:54.000Z,92.35
2022-11-13T05:26:54.013Z,91.93
2022-11-13T05:27:53.978Z,91.72
2022-11-13T05:28:53.994Z,92.24
2022-11-13T05:29:53.962Z,92.30
2022-11-13T05:30:53.994Z,92.14
2022-11-13T05:31:53.965Z,91.62
2022-11-13T05:32:53.962Z,91.72
2022-11-13T05:33:54.008Z,91.72
2022-11-13T05:34:53.914Z,91.62
2022-11-13T05:35:53.928Z,91.77
2022-11-13T05:36:53.885Z,91.93
2022-11-13T05:37:53.970Z,92.35
2022-11-13T05:38:53.872Z,92.24
2022-11-13T05:39:53.868Z,92.14
2022-11-13T05:40:53.849Z,91.83
2022-11-13T05:41:53.872Z,91.52
2022-11-13T05:42:53.843Z,91.78
2022-11-13T05:43:59.032Z,91.41
2022-11-13T05:44:55.844Z,91.68
2022-11-13T05:45:53.810Z,91.89
2022-11-13T05:46:53.780Z,90.75
2022-11-13T05:47:53.772Z,91.68
2022-11-13T05:48:53.834Z,91.68
2022-11-13T05:49:53.764Z,90.89
2022-11-13T05:50:53.756Z,90.69
2022-11-13T05:51:53.748Z,90.47
2022-11-13T05:52:53.732Z,91.10
2022-11-13T05:53:53.802Z,90.93
2022-11-13T05:54:53.759Z,91.56
2022-11-13T05:55:53.720Z,92.33
2022-11-13T05:56:53.693Z,92.43
2022-11-13T05:57:53.683Z,92.85
2022-11-13T05:58:53.686Z,92.95
2022-11-13T05:59:53.671Z,93.16
2022-11-13T06:00:53.668Z,92.95
2022-11-13T06:01:53.706Z,93.31
2022-11-13T06:02:53.656Z,93.27
2022-11-13T06:03:53.624Z,93.27
2022-11-13T06:04:56.544Z,93.37
2022-11-13T06:05:54.617Z,93.58
2022-11-13T06:06:53.632Z,93.37
2022-11-13T06:07:53.599Z,92.54
2022-11-13T06:08:53.604Z,92.85
2022-11-13T06:09:53.737Z,92.74
2022-11-13T06:10:53.562Z,92.64
2022-11-13T06:11:53.576Z,92.95
2022-11-13T06:12:53.617Z,93.12
2022-11-13T06:13:53.573Z,92.80
2022-11-13T06:14:53.523Z,92.60
2022-11-13T06:15:53.555Z,92.60
2022-11-13T06:16:53.581Z,92.39
2022-11-13T06:17:53.496Z,92.24
2022-11-13T06:18:53.495Z,92.29
2022-11-13T06:19:53.476Z,92.08
2022-11-13T06:20:53.460Z,92.24
2022-11-13T06:21:53.463Z,91.52
2022-11-13T06:22:53.447Z,90.41
2022-11-13T06:23:53.433Z,90.62
2022-11-13T06:24:53.480Z,91.28
2022-11-13T06:25:53.495Z,91.71
2022-11-13T06:26:53.449Z,91.66
2022-11-13T06:27:53.391Z,90.77
2022-11-13T06:28:53.394Z,91.08
2022-11-13T06:29:53.374Z,91.04
2022-11-13T06:30:53.361Z,91.18
2022-11-13T06:31:53.372Z,91.08
2022-11-13T06:32:53.343Z,91.35
2022-11-13T06:33:53.338Z,91.39
2022-11-13T06:34:53.315Z,91.18
2022-11-13T06:35:54.321Z,91.08
2022-11-13T06:36:53.325Z,91.18
2022-11-13T06:37:53.295Z,91.46
2022-11-13T06:38:53.335Z,91.08
2022-11-13T06:39:53.351Z,91.60
2022-11-13T06:40:53.343Z,91.71
2022-11-13T06:41:53.329Z,91.04
2022-11-13T06:42:53.249Z,91.46
2022-11-13T06:43:53.230Z,91.39
2022-11-13T06:44:53.231Z,91.18
2022-11-13T06:45:53.223Z,91.04
2022-11-13T06:46:53.208Z,91.50
2022-11-13T06:47:53.195Z,91.56
2022-11-13T06:48:53.190Z,90.93
2022-11-13T06:49:53.186Z,91.35
2022-11-13T06:50:53.176Z,90.72
2022-11-13T06:51:53.142Z,90.41
2022-11-13T06:52:53.145Z,90.41
2022-11-13T06:53:53.180Z,90.93
2022-11-13T06:54:53.144Z,90.45
2022-11-13T06:55:53.194Z,90.25
2022-11-13T06:56:53.115Z,90.60
2022-11-13T06:57:53.172Z,90.56
2022-11-13T06:58:53.111Z,91.33
2022-11-13T06:59:53.069Z,91.18
2022-11-13T07:00:53.146Z,91.22
2022-11-13T07:01:53.058Z,91.08
2022-11-13T07:02:53.078Z,90.87
2022-11-13T07:03:53.051Z,91.08
2022-11-13T07:04:53.178Z,90.45
2022-11-13T07:05:53.024Z,91.08
2022-11-13T07:06:53.064Z,90.77
2022-11-13T07:07:53.112Z,91.08
2022-11-13T07:08:53.005Z,90.72
2022-11-13T07:09:52.992Z,90.83
2022-11-13T07:10:52.964Z,90.72
2022-11-13T07:11:52.967Z,90.31
2022-11-13T07:12:54.811Z,90.52
2022-11-13T07:13:54.026Z,89.89
2022-11-13T07:14:52.947Z,89.69
2022-11-13T07:15:52.936Z,89.69
2022-11-13T07:17:10.041Z,89.43
2022-11-13T07:17:53.896Z,89.02
2022-11-13T07:18:52.893Z,88.60
2022-11-13T07:19:52.908Z,88.81
2022-11-13T07:20:52.930Z,88.71
2022-11-13T07:21:52.877Z,88.60
2022-11-13T07:22:52.869Z,88.29
2022-11-13T07:23:52.863Z,88.09
2022-11-13T07:24:52.856Z,87.98
2022-11-13T07:25:52.830Z,88.19
2022-11-13T07:26:52.811Z,88.50
2022-11-13T07:27:52.847Z,88.50
2022-11-13T07:28:52.791Z,87.98
2022-11-13T07:29:52.878Z,88.19
2022-11-13T07:30:52.773Z,88.50
2022-11-13T07:31:52.750Z,88.19
2022-11-13T07:32:52.804Z,87.98
2022-11-13T07:33:52.730Z,88.60
2022-11-13T07:34:52.740Z,89.12
2022-11-13T07:35:52.717Z,88.92
2022-11-13T07:36:52.731Z,88.92
2022-11-13T07:37:52.688Z,88.87
2022-11-13T07:38:56.679Z,88.77
2022-11-13T07:39:53.684Z,88.56
2022-11-13T07:40:52.677Z,88.56
2022-11-13T07:41:52.712Z,88.04
2022-11-13T07:42:52.653Z,88.15
2022-11-13T07:43:52.678Z,88.56
2022-11-13T07:44:54.901Z,89.08
2022-11-13T07:45:53.696Z,89.08
2022-11-13T07:46:52.614Z,88.46
2022-11-13T07:47:52.632Z,88.35
2022-11-13T07:48:52.607Z,88.25
2022-11-13T07:49:55.372Z,87.63
2022-11-13T07:50:53.589Z,87.69
2022-11-13T07:51:52.573Z,87.79
2022-11-13T07:52:52.560Z,87.07
2022-11-13T07:53:52.578Z,87.59
2022-11-13T07:54:52.549Z,87.27
2022-11-13T07:55:52.525Z,86.93
2022-11-13T07:56:52.525Z,86.72
2022-11-13T07:57:52.508Z,86.82
2022-11-13T07:58:52.519Z,86.51
2022-11-13T07:59:52.494Z,86.93
2022-11-13T08:00:53.512Z,87.30
2022-11-13T08:01:52.534Z,87.24
2022-11-13T08:02:52.490Z,86.72
2022-11-13T08:03:52.510Z,86.05
2022-11-13T08:04:52.447Z,85.43
2022-11-13T08:05:52.424Z,85.12
2022-11-13T08:06:52.446Z,85.81
2022-11-13T08:07:52.439Z,86.02
2022-11-13T08:08:52.392Z,86.85
2022-11-13T08:09:52.516Z,86.64
2022-11-13T08:10:52.384Z,86.64
2022-11-13T08:11:52.377Z,85.87
2022-11-13T08:12:52.359Z,85.14
2022-11-13T08:13:52.346Z,85.04
2022-11-13T08:14:52.351Z,85.25
2022-11-13T08:15:52.349Z,85.14
2022-11-13T08:16:52.355Z,84.94
2022-11-13T08:17:52.385Z,85.25
2022-11-13T08:18:53.309Z,85.25
2022-11-13T08:19:52.327Z,85.04
2022-11-13T08:20:52.280Z,84.73
2022-11-13T08:21:52.281Z,85.25
2022-11-13T08:23:03.495Z,85.04
2022-11-13T08:23:53.290Z,85.04
2022-11-13T08:24:52.357Z,85.46
2022-11-13T08:25:52.252Z,85.25
2022-11-13T08:26:52.229Z,85.35
2022-11-13T08:27:52.215Z,85.19
2022-11-13T08:28:52.228Z,85.29
2022-11-13T08:29:52.215Z,86.18
2022-11-13T08:30:52.331Z,85.42
2022-11-13T08:31:52.166Z,85.21
2022-11-13T08:32:52.190Z,85.00
2022-11-13T08:33:52.266Z,85.52
2022-11-13T08:34:52.187Z,85.11
2022-11-13T08:35:52.145Z,85.21
2022-11-13T08:36:52.123Z,85.00
2022-11-13T08:37:52.119Z,84.65
2022-11-13T08:38:52.127Z,83.99
2022-11-13T08:39:52.111Z,83.75
2022-11-13T08:40:52.087Z,82.29
2022-11-13T08:41:52.067Z,82.81
2022-11-13T08:42:52.073Z,83.02
2022-11-13T08:43:52.056Z,83.58
2022-11-13T08:44:52.067Z,83.10
2022-11-13T08:45:52.035Z,83.16
2022-11-13T08:46:52.019Z,83.16
2022-11-13T08:47:52.015Z,83.06
2022-11-13T08:48:52.009Z,82.40
2022-11-13T08:50:23.989Z,81.54
2022-11-13T08:50:51.974Z,81.54
2022-11-13T08:51:51.969Z,81.29
2022-11-13T08:52:51.988Z,80.74
2022-11-13T08:53:51.958Z,81.56
2022-11-13T08:54:51.951Z,80.88
2022-11-13T08:55:51.950Z,80.91
2022-11-13T08:56:56.588Z,81.84
2022-11-13T08:57:53.911Z,82.36
2022-11-13T08:58:51.913Z,82.98
2022-11-13T08:59:51.892Z,82.29
2022-11-13T09:00:51.955Z,82.81
2022-11-13T09:01:51.905Z,82.40
2022-11-13T09:02:51.861Z,82.15
2022-11-13T09:03:51.896Z,82.39
2022-11-13T09:04:51.838Z,80.94
2022-11-13T09:05:51.910Z,80.56
2022-11-13T09:06:51.870Z,80.21
2022-11-13T09:07:51.812Z,79.28
2022-11-13T09:08:51.798Z,78.42
2022-11-13T09:09:51.773Z,77.25
2022-11-13T09:10:51.780Z,77.94
2022-11-13T09:11:51.790Z,77.01
2022-11-13T09:12:51.762Z,77.80
2022-11-13T09:13:53.522Z,77.59
2022-11-13T09:14:51.733Z,76.98
2022-11-13T09:15:51.756Z,79.28
2022-11-13T09:16:51.717Z,78.87
2022-11-13T09:17:51.701Z,78.87
2022-11-13T09:18:51.705Z,79.76
2022-11-13T09:19:51.683Z,78.94
2022-11-13T09:20:51.679Z,78.73
2022-11-13T09:21:51.755Z,79.55
2022-11-13T09:22:51.656Z,79.62
2022-11-13T09:23:51.691Z,78.73
2022-11-13T09:24:51.627Z,79.55
2022-11-13T09:25:51.624Z,79.52
2022-11-13T09:26:51.611Z,79.41
2022-11-13T09:27:51.628Z,79.11
2022-11-13T09:28:51.616Z,78.90
2022-11-13T09:29:55.559Z,78.90
2022-11-13T09:30:52.581Z,79.41
2022-11-13T09:31:51.566Z,80.20
2022-11-13T09:32:51.563Z,78.76
2022-11-13T09:33:51.596Z,77.62
2022-11-13T09:34:51.542Z,77.94
2022-11-13T09:35:51.545Z,77.59
2022-11-13T09:36:51.512Z,77.90
2022-11-13T09:37:51.582Z,78.66
2022-11-13T09:38:51.498Z,79.07
2022-11-13T09:39:51.511Z,79.58
2022-11-13T09:40:51.513Z,79.11
2022-11-13T09:41:52.490Z,79.62
2022-11-13T09:42:51.521Z,79.55
2022-11-13T09:43:55.219Z,79.76
2022-11-13T09:44:52.516Z,80.58
2022-11-13T09:45:51.440Z,80.90
2022-11-13T09:46:51.429Z,80.79
2022-11-13T09:47:51.422Z,81.51
2022-11-13T09:48:51.393Z,81.41
2022-11-13T09:49:51.418Z,81.21
2022-11-13T09:50:51.400Z,80.86
2022-11-13T09:51:51.371Z,80.14
2022-11-13T09:52:51.358Z,81.48
2022-11-13T09:53:51.451Z,81.79
2022-11-13T09:54:51.448Z,80.14
2022-11-13T09:55:51.324Z,81.89
2022-11-13T09:56:51.319Z,81.54
2022-11-13T09:57:51.313Z,80.41
2022-11-13T09:58:51.292Z,79.44
2022-11-13T09:59:51.296Z,79.03
2022-11-13T10:00:51.307Z,79.14
2022-11-13T10:01:51.278Z,78.83
2022-11-13T10:02:51.255Z,78.93
2022-11-13T10:04:01.629Z,80.58
2022-11-13T10:04:53.239Z,79.65
2022-11-13T10:05:51.235Z,79.41
2022-11-13T10:06:51.291Z,79.93
2022-11-13T10:07:51.218Z,78.58
2022-11-13T10:08:51.225Z,79.99
2022-11-13T10:09:51.266Z,80.30
2022-11-13T10:10:55.442Z,80.13
2022-11-13T10:11:52.159Z,80.02
2022-11-13T10:12:51.170Z,79.37
2022-11-13T10:13:51.143Z,79.79
2022-11-13T10:14:51.130Z,79.85
2022-11-13T10:15:51.117Z,80.36
2022-11-13T10:16:51.173Z,80.16
2022-11-13T10:17:51.117Z,79.33
2022-11-13T10:18:51.082Z,78.72
2022-11-13T10:19:51.075Z,79.23
2022-11-13T10:20:51.091Z,80.36
2022-11-13T10:21:54.997Z,79.91
2022-11-13T10:22:53.047Z,80.12
2022-11-13T10:23:51.044Z,79.81
2022-11-13T10:24:51.047Z,79.40
2022-11-13T10:25:51.139Z,78.85
2022-11-13T10:26:51.004Z,79.88
2022-11-13T10:27:51.080Z,80.08
2022-11-13T10:28:51.733Z,79.98
2022-11-13T10:29:51.980Z,80.08
2022-11-13T10:30:51.033Z,80.19
2022-11-13T10:31:50.995Z,79.84
2022-11-13T10:32:50.952Z,79.94
2022-11-13T10:33:50.953Z,79.12
2022-11-13T10:34:50.936Z,78.67
2022-11-13T10:35:50.925Z,78.98
2022-11-13T10:36:50.943Z,78.43
2022-11-13T10:37:50.894Z,78.12
2022-11-13T10:38:50.942Z,78.12
2022-11-13T10:39:50.917Z,77.06
2022-11-13T10:40:50.871Z,77.68
2022-11-13T10:41:50.932Z,78.29
2022-11-13T10:42:50.858Z,78.09
2022-11-13T10:43:50.920Z,77.68
2022-11-13T10:44:50.830Z,79.11
2022-11-13T10:45:50.814Z,78.60
2022-11-13T10:46:50.889Z,78.81
2022-11-13T10:48:03.688Z,77.06
2022-11-13T10:48:52.822Z,77.88
2022-11-13T10:49:50.777Z,78.87
2022-11-13T10:50:50.783Z,78.67
2022-11-13T10:51:50.781Z,77.84
2022-11-13T10:52:50.743Z,78.81
2022-11-13T10:53:50.739Z,78.25
2022-11-13T10:54:50.727Z,77.33
2022-11-13T10:55:50.759Z,77.03
2022-11-13T10:56:50.751Z,76.89
2022-11-13T10:57:56.144Z,78.12
2022-11-13T10:58:52.699Z,78.36
2022-11-13T10:59:50.690Z,78.05
2022-11-13T11:00:50.708Z,78.94
2022-11-13T11:01:50.689Z,78.22
2022-11-13T11:02:50.738Z,78.74
2022-11-13T11:03:50.633Z,78.94
2022-11-13T11:04:50.636Z,78.53
2022-11-13T11:05:50.642Z,78.32
2022-11-13T11:07:19.053Z,78.70
2022-11-13T11:07:52.667Z,77.67
2022-11-13T11:08:50.589Z,78.05
2022-11-13T11:09:50.595Z,77.12
2022-11-13T11:10:50.604Z,77.43
2022-11-13T11:11:50.562Z,77.64
2022-11-13T11:12:50.646Z,76.78
2022-11-13T11:13:50.609Z,76.92
2022-11-13T11:14:50.547Z,77.84
2022-11-13T11:15:50.553Z,76.81
2022-11-13T11:16:50.594Z,77.23
2022-11-13T11:17:50.500Z,77.29
2022-11-13T11:18:50.519Z,77.80
2022-11-13T11:19:50.523Z,76.64
2022-11-13T11:20:50.482Z,77.05
2022-11-13T11:21:50.487Z,76.95
2022-11-13T11:22:50.447Z,76.43
2022-11-13T11:23:54.745Z,76.13
2022-11-13T11:24:51.472Z,76.40
2022-11-13T11:25:50.424Z,76.50
2022-11-13T11:26:50.418Z,76.13
2022-11-13T11:27:50.393Z,76.61
2022-11-13T11:28:50.405Z,76.61
2022-11-13T11:29:50.489Z,76.13
2022-11-13T11:30:50.391Z,75.48
2022-11-13T11:31:50.364Z,76.61
2022-11-13T11:32:50.359Z,76.50
2022-11-13T11:33:50.355Z,76.71
2022-11-13T11:34:53.739Z,76.57
2022-11-13T11:35:51.335Z,76.47
2022-11-13T11:36:50.316Z,74.84
2022-11-13T11:37:50.316Z,75.34
2022-11-13T11:38:50.334Z,75.85
2022-11-13T11:39:50.324Z,76.20
2022-11-13T11:40:50.269Z,76.06
2022-11-13T11:41:50.264Z,75.96
2022-11-13T11:42:50.278Z,76.47
2022-11-13T11:43:50.271Z,75.21
2022-11-13T11:44:50.264Z,75.34
2022-11-13T11:45:50.305Z,76.03
2022-11-13T11:46:50.222Z,75.31
2022-11-13T11:47:50.250Z,74.76
2022-11-13T11:48:50.248Z,74.76
2022-11-13T11:49:50.188Z,75.58
2022-11-13T11:50:50.168Z,74.87
2022-11-13T11:51:51.182Z,74.83
2022-11-13T11:52:50.200Z,74.97
2022-11-13T11:53:50.145Z,72.79
2022-11-13T11:54:50.126Z,72.99
2022-11-13T11:55:50.134Z,74.11
2022-11-13T11:56:50.130Z,72.79
2022-11-13T11:57:50.115Z,73.50
2022-11-13T11:58:50.112Z,72.89
2022-11-13T11:59:50.079Z,73.06
2022-11-13T12:00:50.096Z,72.17
2022-11-13T12:01:50.170Z,72.24
2022-11-13T12:02:50.096Z,72.04
2022-11-13T12:03:50.067Z,72.62
2022-11-13T12:04:50.070Z,72.28
2022-11-13T12:05:50.031Z,71.19
2022-11-13T12:06:50.142Z,71.29
2022-11-13T12:07:50.005Z,70.95
2022-11-13T12:08:49.998Z,71.06
2022-11-13T12:09:49.972Z,71.15
2022-11-13T12:10:50.015Z,70.75
2022-11-13T12:11:50.036Z,69.90
2022-11-13T12:12:50.037Z,70.21
2022-11-13T12:13:49.945Z,69.90
2022-11-13T12:14:49.930Z,69.90
2022-11-13T12:15:49.922Z,70.10
2022-11-13T12:16:49.894Z,69.80
2022-11-13T12:17:49.980Z,69.90
2022-11-13T12:18:49.878Z,70.41
2022-11-13T12:19:49.883Z,69.19
2022-11-13T12:20:49.861Z,70.10
2022-11-13T12:21:50.845Z,69.09
2022-11-13T12:22:49.850Z,68.95
2022-11-13T12:23:49.855Z,68.95
2022-11-13T12:24:49.818Z,68.04
2022-11-13T12:25:49.817Z,68.75
2022-11-13T12:26:49.818Z,67.73
2022-11-13T12:27:49.811Z,66.27
2022-11-13T12:28:49.805Z,66.68
2022-11-13T12:29:49.773Z,66.47
2022-11-13T12:30:49.766Z,66.07
2022-11-13T12:31:49.751Z,65.97
2022-11-13T12:32:49.759Z,66.44
2022-11-13T12:33:49.821Z,65.94
2022-11-13T12:34:49.777Z,66.04
2022-11-13T12:35:49.764Z,64.48
2022-11-13T12:36:49.726Z,63.77
2022-11-13T12:37:49.690Z,63.16
2022-11-13T12:38:49.717Z,62.14
2022-11-13T12:39:49.735Z,62.35
2022-11-13T12:40:49.649Z,63.02
2022-11-13T12:41:49.649Z,60.08
2022-11-13T12:42:49.657Z,61.10
2022-11-13T12:43:49.614Z,59.67
2022-11-13T12:44:50.621Z,61.51
2022-11-13T12:45:49.625Z,60.86
2022-11-13T12:46:49.594Z,59.98
2022-11-13T12:47:49.742Z,59.88
2022-11-13T12:48:49.572Z,60.76
2022-11-13T12:49:49.690Z,59.84
2022-11-13T12:50:50.571Z,59.95
2022-11-13T12:51:49.556Z,60.05
2022-11-13T12:52:49.561Z,58.94
2022-11-13T12:53:49.545Z,59.03